createdAt,value
2023-09-06T00:04:11.897Z,7.00
2023-09-06T00:09:33.871Z,7.18
2023-09-06T00:14:55.699Z,6.78
2023-09-06T00:20:17.470Z,6.80
2023-09-06T00:25:39.195Z,7.18
2023-09-06T00:31:01.020Z,6.80
2023-09-06T00:36:22.876Z,6.72
2023-09-06T00:41:44.678Z,7.32
2023-09-06T00:47:06.597Z,7.85
2023-09-06T00:52:28.491Z,7.22
2023-09-06T00:57:50.470Z,7.60
2023-09-06T01:03:12.795Z,7.55
2023-09-06T01:08:43.704Z,7.65
2023-09-06T01:14:05.435Z,7.25
2023-09-06T01:19:30.776Z,7.57
2023-09-06T01:24:53.425Z,7.65
2023-09-06T01:30:15.441Z,8.45
2023-09-06T01:35:37.196Z,7.40
2023-09-06T01:40:58.921Z,7.63
2023-09-06T01:46:21.771Z,7.68
2023-09-06T01:51:45.047Z,9.27
2023-09-06T01:57:06.819Z,7.88
2023-09-06T02:02:28.724Z,9.38
2023-09-06T02:07:50.620Z,9.52
2023-09-06T02:13:12.387Z,10.13
2023-09-06T02:18:34.208Z,9.63
2023-09-06T02:23:55.948Z,10.15
2023-09-06T02:29:17.650Z,10.38
2023-09-06T02:34:39.413Z,9.52
2023-09-06T02:40:02.093Z,9.57
2023-09-06T02:45:23.866Z,10.40
2023-09-06T02:50:45.712Z,10.15
2023-09-06T02:56:07.457Z,9.40
2023-09-06T03:01:29.261Z,10.35
2023-09-06T03:06:51.231Z,11.00
2023-09-06T03:12:13.038Z,10.60
2023-09-06T03:17:34.906Z,10.35
2023-09-06T03:22:56.634Z,10.80
2023-09-06T03:28:18.897Z,10.73
2023-09-06T03:33:40.752Z,10.93
2023-09-06T03:39:02.508Z,10.85
2023-09-06T03:44:24.230Z,10.45
2023-09-06T03:49:46.126Z,10.75
2023-09-06T03:55:08.025Z,10.18
2023-09-06T04:00:29.793Z,10.82
2023-09-06T04:05:51.528Z,11.15
2023-09-06T04:11:14.900Z,11.10
2023-09-06T04:16:38.330Z,11.23
2023-09-06T04:22:00.147Z,10.63
2023-09-06T04:27:21.897Z,11.40
2023-09-06T04:32:44.561Z,11.85
2023-09-06T04:38:06.648Z,12.13
2023-09-06T04:43:28.574Z,10.77
2023-09-06T04:48:50.446Z,10.85
2023-09-06T04:54:12.184Z,11.07
2023-09-06T04:59:36.782Z,10.52
2023-09-06T05:04:58.496Z,11.35
2023-09-06T05:10:20.458Z,10.55
2023-09-06T05:15:42.211Z,10.93
2023-09-06T05:21:04.092Z,11.73
2023-09-06T05:26:25.828Z,10.75
2023-09-06T05:31:47.592Z,10.88
2023-09-06T05:37:09.385Z,10.95
2023-09-06T05:42:31.363Z,10.60
2023-09-06T05:47:53.757Z,10.40
2023-09-06T05:53:15.525Z,11.98
2023-09-06T05:58:37.266Z,10.05
2023-09-06T06:03:59.022Z,10.55
2023-09-06T06:09:20.856Z,10.57
2023-09-06T06:14:42.618Z,9.80
2023-09-06T06:20:05.126Z,9.93
2023-09-06T06:25:26.967Z,10.43
2023-09-06T06:30:48.712Z,10.15
2023-09-06T06:36:10.500Z,10.13
2023-09-06T06:41:32.370Z,10.10
2023-09-06T06:46:54.169Z,10.77
2023-09-06T06:52:16.008Z,9.80
2023-09-06T06:57:37.759Z,8.15
2023-09-06T07:02:59.616Z,9.73
2023-09-06T07:08:21.513Z,8.30
2023-09-06T07:13:43.922Z,8.05
2023-09-06T07:19:06.206Z,8.68
2023-09-06T07:24:28.073Z,7.43
2023-09-06T07:29:50.213Z,6.97
2023-09-06T07:35:12.176Z,7.05
2023-09-06T07:40:34.054Z,5.82
2023-09-06T07:45:59.659Z,5.28
2023-09-06T07:51:21.575Z,5.95
2023-09-06T07:56:43.349Z,5.03
2023-09-06T08:02:05.130Z,4.93
2023-09-06T08:07:26.902Z,5.10
2023-09-06T08:12:48.662Z,5.10
2023-09-06T08:18:11.415Z,5.13
2023-09-06T08:23:33.260Z,5.43
2023-09-06T08:28:55.239Z,5.35
2023-09-06T08:34:16.985Z,5.22
2023-09-06T08:39:38.730Z,5.15
2023-09-06T08:45:02.363Z,5.43
2023-09-06T08:50:24.349Z,5.00
2023-09-06T08:55:46.614Z,5.35
2023-09-06T09:01:08.641Z,5.32
2023-09-06T09:06:30.551Z,6.35
2023-09-06T09:11:53.367Z,4.88
2023-09-06T09:17:15.121Z,4.90
2023-09-06T09:22:37.002Z,4.70
2023-09-06T09:27:59.911Z,4.50
2023-09-06T09:33:28.394Z,4.40
2023-09-06T09:38:51.569Z,4.35
2023-09-06T09:44:16.970Z,4.35
2023-09-06T09:49:40.633Z,4.70
2023-09-06T09:55:03.565Z,5.10
2023-09-06T10:00:27.181Z,4.28
2023-09-06T10:05:49.167Z,4.72
2023-09-06T10:11:12.430Z,3.88
2023-09-06T10:16:34.180Z,4.10
2023-09-06T10:21:56.485Z,3.53
2023-09-06T10:27:18.273Z,4.90
2023-09-06T10:32:41.502Z,4.13
2023-09-06T10:38:11.521Z,3.92
2023-09-06T10:44:03.984Z,3.40
2023-09-06T10:49:29.292Z,3.50
2023-09-06T10:54:54.646Z,4.50
2023-09-06T11:00:20.926Z,4.40
2023-09-06T11:05:45.912Z,3.90
2023-09-06T11:11:10.676Z,2.90
2023-09-06T11:16:32.598Z,3.25
2023-09-06T11:22:10.827Z,3.75
2023-09-06T11:27:32.768Z,3.10
2023-09-06T11:32:57.627Z,2.92
2023-09-06T11:38:22.696Z,3.20
2023-09-06T11:43:44.857Z,3.75
2023-09-06T11:49:07.112Z,2.88
2023-09-06T11:54:28.931Z,2.53
2023-09-06T11:59:53.437Z,2.88
2023-09-06T12:05:15.473Z,3.05
2023-09-06T12:10:37.227Z,2.92
2023-09-06T12:16:03.296Z,3.60
2023-09-06T12:21:25.053Z,3.38
2023-09-06T12:26:46.859Z,2.90
2023-09-06T12:32:08.710Z,3.05
2023-09-06T12:37:30.417Z,3.00
2023-09-06T12:42:52.115Z,3.40
2023-09-06T12:48:13.935Z,3.15
2023-09-06T12:53:36.272Z,3.22
2023-09-06T12:58:58.043Z,2.92
2023-09-06T13:04:19.922Z,2.58
2023-09-06T13:09:41.728Z,3.03
2023-09-06T13:15:03.758Z,2.78
2023-09-06T13:20:25.612Z,2.50
2023-09-06T13:25:47.366Z,2.72
2023-09-06T13:31:09.424Z,2.78
2023-09-06T13:36:31.724Z,3.50
2023-09-06T13:41:53.794Z,3.20
2023-09-06T13:47:15.687Z,3.53
2023-09-06T13:52:37.476Z,3.45
2023-09-06T13:57:59.292Z,2.97
2023-09-06T14:03:21.214Z,3.00
2023-09-06T14:08:43.078Z,3.25
2023-09-06T14:14:04.990Z,3.28
2023-09-06T14:19:28.981Z,3.10
2023-09-06T14:24:50.694Z,3.10
2023-09-06T14:30:12.812Z,3.67
2023-09-06T14:35:41.507Z,3.20
2023-09-06T14:41:03.275Z,3.00
2023-09-06T14:46:25.152Z,3.50
2023-09-06T14:51:46.935Z,2.60
2023-09-06T14:57:08.746Z,2.63
2023-09-06T15:02:30.632Z,3.30
2023-09-06T15:07:52.501Z,3.08
2023-09-06T15:13:14.245Z,2.70
2023-09-06T15:18:36.178Z,3.25
2023-09-06T15:23:58.007Z,3.08
2023-09-06T15:29:19.748Z,2.50
2023-09-06T15:34:41.470Z,3.15
2023-09-06T15:40:03.475Z,2.88
2023-09-06T15:45:25.782Z,2.78
2023-09-06T15:50:47.587Z,2.33
2023-09-06T15:56:09.459Z,2.67
2023-09-06T16:01:32.264Z,2.20
2023-09-06T16:06:54.181Z,2.85
2023-09-06T16:12:15.974Z,3.47
2023-09-06T16:17:37.759Z,2.90
2023-09-06T16:22:59.524Z,3.13
2023-09-06T16:28:21.339Z,3.13
2023-09-06T16:33:43.165Z,2.95
2023-09-06T16:39:04.976Z,3.38
2023-09-06T16:44:28.429Z,3.55
2023-09-06T16:49:52.149Z,3.05
2023-09-06T16:55:13.930Z,3.28
2023-09-06T17:00:35.795Z,3.33
2023-09-06T17:05:57.533Z,3.92
2023-09-06T17:11:19.473Z,3.97
2023-09-06T17:16:41.399Z,4.00
2023-09-06T17:22:03.295Z,4.57
2023-09-06T17:27:25.055Z,4.10
2023-09-06T17:33:14.338Z,4.10
2023-09-06T17:38:36.245Z,3.95
2023-09-06T17:43:57.932Z,3.53
2023-09-06T17:49:19.962Z,3.78
2023-09-06T17:54:41.843Z,4.03
2023-09-06T18:00:04.942Z,3.83
2023-09-06T18:05:27.283Z,5.30
2023-09-06T18:10:49.265Z,5.43
2023-09-06T18:16:13.174Z,4.90
2023-09-06T18:21:36.255Z,5.80
2023-09-06T18:27:07.946Z,5.15
2023-09-06T18:32:30.350Z,5.70
2023-09-06T18:37:52.129Z,6.53
2023-09-06T18:43:14.211Z,7.03
2023-09-06T18:48:36.468Z,7.20
2023-09-06T18:53:58.466Z,7.00
2023-09-06T18:59:20.224Z,6.53
2023-09-06T19:04:43.624Z,7.95
2023-09-06T19:10:07.039Z,7.60
2023-09-06T19:15:28.779Z,8.35
2023-09-06T19:20:50.517Z,6.70
2023-09-06T19:26:12.313Z,8.18
2023-09-06T19:31:34.079Z,7.35
2023-09-06T19:36:56.469Z,9.15
2023-09-06T19:42:18.181Z,7.50
2023-09-06T19:47:40.100Z,7.38
2023-09-06T19:53:02.093Z,7.30
2023-09-06T19:58:23.852Z,7.45
2023-09-06T20:03:45.684Z,7.88
2023-09-06T20:09:07.688Z,8.07
2023-09-06T20:14:29.774Z,7.78
2023-09-06T20:19:51.597Z,7.80
2023-09-06T20:25:13.369Z,7.25
2023-09-06T20:30:38.929Z,8.50
2023-09-06T20:36:01.437Z,8.30
2023-09-06T20:41:23.332Z,8.10
2023-09-06T20:46:45.133Z,8.93
2023-09-06T20:52:07.049Z,9.23
2023-09-06T20:57:28.871Z,9.25
2023-09-06T21:02:50.714Z,9.23
2023-09-06T21:08:12.506Z,9.25
2023-09-06T21:13:34.296Z,9.02
2023-09-06T21:18:56.071Z,10.05
2023-09-06T21:24:17.923Z,10.05
2023-09-06T21:29:39.680Z,10.93
2023-09-06T21:35:01.807Z,9.93
2023-09-06T21:40:23.643Z,10.35
2023-09-06T21:45:45.542Z,11.00
2023-09-06T21:51:12.286Z,12.07
2023-09-06T21:56:34.087Z,13.05
2023-09-06T22:01:56.078Z,13.02
2023-09-06T22:07:17.850Z,13.18
2023-09-06T22:12:39.637Z,13.02
2023-09-06T22:18:01.498Z,12.98
2023-09-06T22:23:23.434Z,13.50
2023-09-06T22:28:45.178Z,12.15
2023-09-06T22:34:06.972Z,11.93
2023-09-06T22:39:28.949Z,13.07
2023-09-06T22:44:50.702Z,10.52
2023-09-06T22:50:12.486Z,9.07
2023-09-06T22:55:34.230Z,8.80
2023-09-06T23:01:04.412Z,8.73
2023-09-06T23:06:26.407Z,9.35
2023-09-06T23:11:49.937Z,9.00
2023-09-06T23:17:11.803Z,8.65
2023-09-06T23:22:33.646Z,9.45
2023-09-06T23:27:55.455Z,8.27
2023-09-06T23:33:17.251Z,8.30
2023-09-06T23:38:39.017Z,9.15
2023-09-06T23:44:00.770Z,8.35
2023-09-06T23:49:22.528Z,8.52
2023-09-06T23:54:48.149Z,8.65
